createdAt,value
2018-10-07T00:00:11.938Z,101016.73
2018-10-07T00:02:39.614Z,101044.72
2018-10-07T00:05:07.215Z,101057.02
2018-10-07T00:07:34.909Z,101049.17
2018-10-07T00:10:02.479Z,101039.15
2018-10-07T00:12:30.076Z,101036.55
2018-10-07T00:14:57.764Z,101039.23
2018-10-07T00:17:25.439Z,101060.22
2018-10-07T00:19:53.050Z,101082.55
2018-10-07T00:22:20.644Z,101088.25
2018-10-07T00:24:48.258Z,101089.56
2018-10-07T00:27:15.877Z,101113.20
2018-10-07T00:29:43.574Z,101131.16
2018-10-07T00:32:13.096Z,101142.55
2018-10-07T00:34:40.701Z,101135.17
2018-10-07T00:37:08.403Z,101130.36
2018-10-07T00:39:36.081Z,101140.47
2018-10-07T00:42:03.746Z,101163.66
2018-10-07T00:44:31.360Z,101175.02
2018-10-07T00:46:59.009Z,101182.89
2018-10-07T00:49:26.724Z,101179.47
2018-10-07T00:51:54.323Z,101191.31
2018-10-07T00:54:21.978Z,101186.97
2018-10-07T00:56:49.617Z,101199.26
2018-10-07T00:59:17.227Z,101212.38
2018-10-07T01:01:44.830Z,101217.64
2018-10-07T01:04:12.440Z,101223.39
2018-10-07T01:06:40.109Z,101221.27
2018-10-07T01:09:09.203Z,101238.70
2018-10-07T01:11:36.909Z,101247.03
2018-10-07T01:14:04.627Z,101245.33
2018-10-07T01:16:32.309Z,101241.00
2018-10-07T01:18:59.999Z,101237.50
2018-10-07T01:21:27.736Z,101257.19
2018-10-07T01:23:55.372Z,101269.47
2018-10-07T01:26:22.979Z,101284.34
2018-10-07T01:28:50.620Z,101294.41
2018-10-07T01:31:18.217Z,101291.43
2018-10-07T01:33:45.833Z,101307.13
2018-10-07T01:36:13.506Z,101290.59
2018-10-07T01:38:41.164Z,101291.02
2018-10-07T01:41:08.768Z,101296.30
2018-10-07T01:43:36.400Z,101299.81
2018-10-07T01:46:04.044Z,101301.53
2018-10-07T01:48:31.673Z,101311.63
2018-10-07T01:50:59.267Z,101312.94
2018-10-07T01:53:26.867Z,101316.88
2018-10-07T01:55:54.609Z,101323.02
2018-10-07T01:58:22.204Z,101324.34
2018-10-07T02:00:49.840Z,101337.02
2018-10-07T02:03:17.445Z,101341.83
2018-10-07T02:05:45.114Z,101360.20
2018-10-07T02:08:12.816Z,101361.51
2018-10-07T02:10:40.477Z,101366.75
2018-10-07T02:13:08.065Z,101373.31
2018-10-07T02:15:35.796Z,101362.00
2018-10-07T02:18:03.404Z,101351.07
2018-10-07T02:20:30.969Z,101361.60
2018-10-07T02:22:58.630Z,101367.31
2018-10-07T02:25:26.357Z,101371.20
2018-10-07T02:27:53.952Z,101376.88
2018-10-07T02:30:21.539Z,101374.32
2018-10-07T02:32:49.143Z,101385.22
2018-10-07T02:35:16.736Z,101395.70
2018-10-07T02:37:44.400Z,101405.30
2018-10-07T02:40:12.011Z,101418.88
2018-10-07T02:42:39.666Z,101424.97
2018-10-07T02:45:07.328Z,101424.13
2018-10-07T02:47:35.013Z,101426.75
2018-10-07T02:50:10.465Z,101419.34
2018-10-07T02:52:43.567Z,101425.47
2018-10-07T02:55:11.245Z,101435.53
2018-10-07T02:57:38.887Z,101442.98
2018-10-07T03:00:06.494Z,101447.80
2018-10-07T03:02:34.161Z,101450.84
2018-10-07T03:05:01.779Z,101452.56
2018-10-07T03:07:29.412Z,101448.24
2018-10-07T03:09:57.052Z,101464.83
2018-10-07T03:12:24.695Z,101465.69
2018-10-07T03:14:52.278Z,101479.27
2018-10-07T03:17:19.868Z,101470.98
2018-10-07T03:19:47.435Z,101474.88
2018-10-07T03:22:15.068Z,101471.84
2018-10-07T03:24:42.713Z,101468.38
2018-10-07T03:27:10.486Z,101469.23
2018-10-07T03:29:38.116Z,101475.82
2018-10-07T03:32:05.873Z,101489.35
2018-10-07T03:34:33.537Z,101491.55
2018-10-07T03:37:01.109Z,101491.56
2018-10-07T03:39:28.796Z,101487.22
2018-10-07T03:41:56.607Z,101491.16
2018-10-07T03:44:27.360Z,101492.05
2018-10-07T03:46:55.408Z,101496.41
2018-10-07T03:49:23.004Z,101504.67
2018-10-07T03:51:50.652Z,101503.78
2018-10-07T03:54:18.215Z,101505.14
2018-10-07T03:56:45.861Z,101506.47
2018-10-07T03:59:13.508Z,101512.14
2018-10-07T04:01:41.162Z,101516.53
2018-10-07T04:04:08.766Z,101518.70
2018-10-07T04:06:36.451Z,101523.94
2018-10-07T04:09:05.821Z,101530.06
2018-10-07T04:11:33.396Z,101532.28
2018-10-07T04:14:01.032Z,101540.12
2018-10-07T04:16:28.642Z,101537.09
2018-10-07T04:18:56.300Z,101540.55
2018-10-07T04:21:23.883Z,101543.22
2018-10-07T04:23:51.528Z,101541.03
2018-10-07T04:26:19.218Z,101541.50
2018-10-07T04:28:46.821Z,101550.67
2018-10-07T04:31:14.471Z,101554.59
2018-10-07T04:33:42.072Z,101556.34
2018-10-07T04:36:09.733Z,101555.05
2018-10-07T04:38:37.609Z,101564.67
2018-10-07T04:41:05.557Z,101569.91
2018-10-07T04:43:33.171Z,101582.53
2018-10-07T04:46:00.842Z,101584.31
2018-10-07T04:48:28.521Z,101577.30
2018-10-07T04:50:56.120Z,101576.05
2018-10-07T04:53:23.787Z,101574.73
2018-10-07T04:55:51.386Z,101591.77
2018-10-07T04:58:18.997Z,101587.42
2018-10-07T05:00:46.659Z,101586.11
2018-10-07T05:03:14.456Z,101589.58
2018-10-07T05:05:42.079Z,101589.58
2018-10-07T05:08:09.703Z,101590.05
2018-10-07T05:10:46.161Z,101597.48
2018-10-07T05:13:16.855Z,101601.41
2018-10-07T05:15:45.372Z,101604.47
2018-10-07T05:18:12.971Z,101617.98
2018-10-07T05:20:40.688Z,101628.03
2018-10-07T05:23:08.268Z,101624.11
2018-10-07T05:25:35.927Z,101629.34
2018-10-07T05:28:03.786Z,101632.84
2018-10-07T05:30:31.449Z,101631.55
2018-10-07T05:32:59.027Z,101635.89
2018-10-07T05:35:26.831Z,101637.66
2018-10-07T05:37:54.556Z,101643.75
2018-10-07T05:40:22.173Z,101647.25
2018-10-07T05:42:49.754Z,101654.68
2018-10-07T05:45:17.353Z,101662.96
2018-10-07T05:47:45.015Z,101666.90
2018-10-07T05:50:12.634Z,101681.29
2018-10-07T05:52:40.466Z,101678.66
2018-10-07T05:55:08.202Z,101689.14
2018-10-07T05:57:35.776Z,101683.44
2018-10-07T06:00:03.421Z,101685.21
2018-10-07T06:02:31.046Z,101680.41
2018-10-07T06:04:59.157Z,101691.77
2018-10-07T06:07:27.999Z,101691.30
2018-10-07T06:09:55.647Z,101698.73
2018-10-07T06:12:23.293Z,101703.96
2018-10-07T06:15:02.406Z,101706.16
2018-10-07T06:17:29.963Z,101701.81
2018-10-07T06:19:57.572Z,101707.89
2018-10-07T06:22:25.621Z,101711.36
2018-10-07T06:24:53.207Z,101706.58
2018-10-07T06:27:20.868Z,101713.55
2018-10-07T06:29:48.534Z,101714.86
2018-10-07T06:32:16.123Z,101717.95
2018-10-07T06:34:43.732Z,101729.27
2018-10-07T06:37:11.412Z,101728.84
2018-10-07T06:39:39.060Z,101736.28
2018-10-07T06:42:06.836Z,101744.98
2018-10-07T06:44:34.452Z,101756.77
2018-10-07T06:47:02.068Z,101753.27
2018-10-07T06:49:29.726Z,101755.45
2018-10-07T06:51:57.316Z,101762.85
2018-10-07T06:54:24.892Z,101758.92
2018-10-07T06:56:52.508Z,101768.09
2018-10-07T06:59:20.152Z,101770.28
2018-10-07T07:01:47.822Z,101770.28
2018-10-07T07:04:15.525Z,101775.94
2018-10-07T07:06:43.176Z,101785.11
2018-10-07T07:09:11.320Z,101778.56
2018-10-07T07:11:39.078Z,101775.94
2018-10-07T07:14:06.657Z,101781.18
2018-10-07T07:16:34.356Z,101793.85
2018-10-07T07:19:01.935Z,101798.63
2018-10-07T07:21:29.621Z,101804.75
2018-10-07T07:23:57.240Z,101804.75
2018-10-07T07:26:25.097Z,101806.91
2018-10-07T07:28:52.759Z,101812.14
2018-10-07T07:31:20.354Z,101824.36
2018-10-07T07:33:47.996Z,101830.91
2018-10-07T07:36:15.632Z,101837.03
2018-10-07T07:38:43.316Z,101840.50
2018-10-07T07:41:10.971Z,101845.73
2018-10-07T07:43:38.990Z,101850.98
2018-10-07T07:46:06.619Z,101848.36
2018-10-07T07:48:34.302Z,101855.33
2018-10-07T07:51:01.946Z,101857.98
2018-10-07T07:53:29.592Z,101872.36
2018-10-07T07:55:57.220Z,101874.55
2018-10-07T07:58:24.955Z,101887.63
2018-10-07T08:00:52.597Z,101884.15
2018-10-07T08:03:20.197Z,101893.32
2018-10-07T08:05:47.823Z,101900.30
2018-10-07T08:08:15.468Z,101898.56
2018-10-07T08:10:43.104Z,101905.96
2018-10-07T08:13:10.708Z,101917.33
2018-10-07T08:15:38.385Z,101919.95
2018-10-07T08:18:06.044Z,101926.92
2018-10-07T08:20:33.639Z,101933.02
2018-10-07T08:23:01.307Z,101931.70
2018-10-07T08:25:28.977Z,101945.27
2018-10-07T08:27:56.637Z,101944.38
2018-10-07T08:30:24.215Z,101948.31
2018-10-07T08:32:51.832Z,101953.98
2018-10-07T08:35:19.738Z,101953.09
2018-10-07T08:37:47.332Z,101957.91
2018-10-07T08:40:14.999Z,101963.58
2018-10-07T08:42:42.639Z,101967.94
2018-10-07T08:45:10.301Z,101981.04
2018-10-07T08:47:37.921Z,101984.55
2018-10-07T08:50:05.623Z,101974.91
2018-10-07T08:52:33.203Z,101986.28
2018-10-07T08:55:00.857Z,101995.45
2018-10-07T08:57:28.494Z,101998.08
2018-10-07T08:59:56.138Z,101994.15
2018-10-07T09:02:23.819Z,101992.84
2018-10-07T09:04:51.417Z,101996.31
2018-10-07T09:07:19.071Z,101998.93
2018-10-07T09:09:46.672Z,102004.60
2018-10-07T09:12:14.266Z,102004.17
2018-10-07T09:14:41.995Z,101985.83
2018-10-07T09:17:09.615Z,102000.25
2018-10-07T09:19:37.232Z,102006.34
2018-10-07T09:22:04.875Z,102001.98
2018-10-07T09:24:32.543Z,102010.73
2018-10-07T09:27:00.228Z,102018.56
2018-10-07T09:29:27.825Z,102015.94
2018-10-07T09:31:55.495Z,102016.41
2018-10-07T09:34:23.079Z,102018.99
2018-10-07T09:36:50.707Z,102027.31
2018-10-07T09:39:18.350Z,102027.77
2018-10-07T09:41:45.944Z,102044.36
2018-10-07T09:44:13.571Z,102041.73
2018-10-07T09:46:41.353Z,102042.16
2018-10-07T09:49:08.967Z,102035.61
2018-10-07T09:51:36.638Z,102039.97
2018-10-07T09:54:04.330Z,102036.03
2018-10-07T09:56:31.936Z,102035.15
2018-10-07T09:58:59.588Z,102034.27
2018-10-07T10:01:27.225Z,102039.94
2018-10-07T10:03:54.915Z,102048.69
2018-10-07T10:06:22.497Z,102042.56
2018-10-07T10:08:50.160Z,102048.27
2018-10-07T10:11:17.879Z,102052.62
2018-10-07T10:13:45.413Z,102046.49
2018-10-07T10:16:13.077Z,102048.23
2018-10-07T10:18:50.840Z,102049.08
2018-10-07T10:21:27.995Z,102056.09
2018-10-07T10:24:30.486Z,102048.23
2018-10-07T10:27:05.562Z,102053.02
2018-10-07T10:29:36.148Z,102046.87
2018-10-07T10:32:09.837Z,102048.19
2018-10-07T10:36:49.140Z,102051.70
2018-10-07T10:40:26.847Z,102053.02
2018-10-07T10:42:57.587Z,102054.36
2018-10-07T10:45:35.009Z,102049.08
2018-10-07T10:48:24.429Z,102063.50
2018-10-07T10:51:10.488Z,102056.09
2018-10-07T10:53:45.381Z,102048.19
2018-10-07T10:56:25.622Z,102042.52
2018-10-07T10:59:12.070Z,102039.86
2018-10-07T11:03:54.316Z,102044.67
2018-10-07T11:06:39.059Z,102043.32
2018-10-07T11:10:14.622Z,102040.69
2018-10-07T11:12:47.121Z,102041.11
2018-10-07T11:15:26.638Z,102047.22
2018-10-07T11:19:02.926Z,102050.72
2018-10-07T11:21:41.931Z,102053.77
2018-10-07T11:24:37.753Z,102062.95
2018-10-07T11:27:09.761Z,102061.64
2018-10-07T11:29:44.230Z,102066.00
2018-10-07T11:32:19.413Z,102059.91
2018-10-07T11:34:58.824Z,102061.22
2018-10-07T11:37:37.830Z,102058.59
2018-10-07T11:40:16.804Z,102060.75
2018-10-07T11:43:08.510Z,102055.08
2018-10-07T11:45:42.317Z,102061.59
2018-10-07T11:48:49.151Z,102066.41
2018-10-07T11:53:28.512Z,102076.44
2018-10-07T11:55:56.189Z,102069.84
2018-10-07T11:58:23.779Z,102077.29
2018-10-07T12:00:51.376Z,102083.85
2018-10-07T12:03:19.001Z,102080.34
2018-10-07T12:05:46.644Z,102081.23
2018-10-07T12:08:14.364Z,102086.05
2018-10-07T12:10:41.969Z,102088.63
2018-10-07T12:13:09.593Z,102091.70
2018-10-07T12:15:37.241Z,102098.69
2018-10-07T12:18:04.911Z,102093.02
2018-10-07T12:20:32.561Z,102097.80
2018-10-07T12:23:00.194Z,102094.73
2018-10-07T12:25:27.824Z,102088.13
2018-10-07T12:27:55.476Z,102098.16
2018-10-07T12:30:23.099Z,102094.20
2018-10-07T12:32:50.716Z,102091.58
2018-10-07T12:35:18.299Z,102095.53
2018-10-07T12:37:45.932Z,102093.31
2018-10-07T12:40:13.570Z,102088.83
2018-10-07T12:42:41.243Z,102098.41
2018-10-07T12:45:08.916Z,102107.08
2018-10-07T12:47:36.541Z,102111.48
2018-10-07T12:50:04.336Z,102119.38
2018-10-07T12:52:32.107Z,102121.61
2018-10-07T12:54:59.743Z,102121.23
2018-10-07T12:57:27.404Z,102120.36
2018-10-07T12:59:55.002Z,102118.61
2018-10-07T13:02:22.648Z,102123.86
2018-10-07T13:04:50.248Z,102126.91
2018-10-07T13:07:17.823Z,102128.17
2018-10-07T13:09:45.496Z,102131.63
2018-10-07T13:12:13.136Z,102131.63
2018-10-07T13:14:40.786Z,102130.30
2018-10-07T13:17:08.376Z,102128.50
2018-10-07T13:19:36.058Z,102126.22
2018-10-07T13:22:03.623Z,102135.81
2018-10-07T13:24:31.241Z,102131.39
2018-10-07T13:26:58.855Z,102136.66
2018-10-07T13:29:26.480Z,102144.08
2018-10-07T13:31:54.072Z,102151.97
2018-10-07T13:34:21.748Z,102151.58
2018-10-07T13:36:49.400Z,102149.80
2018-10-07T13:39:16.983Z,102145.85
2018-10-07T13:41:44.625Z,102153.74
2018-10-07T13:44:12.195Z,102155.48
2018-10-07T13:46:39.843Z,102154.58
2018-10-07T13:49:07.508Z,102159.32
2018-10-07T13:51:35.181Z,102161.73
2018-10-07T13:54:02.832Z,102166.42
2018-10-07T13:56:30.504Z,102169.77
2018-10-07T13:58:58.169Z,102173.25
2018-10-07T14:01:25.920Z,102181.20
2018-10-07T14:03:53.551Z,102182.36
2018-10-07T14:06:21.160Z,102179.14
2018-10-07T14:08:48.755Z,102174.12
2018-10-07T14:11:16.423Z,102176.11
2018-10-07T14:13:44.014Z,102166.37
2018-10-07T14:16:11.685Z,102163.22
2018-10-07T14:18:39.334Z,102156.20
2018-10-07T14:21:06.995Z,102159.25
2018-10-07T14:23:41.451Z,102163.16
2018-10-07T14:26:09.099Z,102157.08
2018-10-07T14:28:36.707Z,102162.39
2018-10-07T14:31:04.316Z,102167.31
2018-10-07T14:33:31.920Z,102167.75
2018-10-07T14:35:59.517Z,102160.69
2018-10-07T14:38:27.133Z,102168.59
2018-10-07T14:40:54.765Z,102174.59
2018-10-07T14:43:22.372Z,102177.56
2018-10-07T14:45:50.024Z,102180.66
2018-10-07T14:48:17.622Z,102175.81
2018-10-07T14:50:45.271Z,102171.44
2018-10-07T14:53:12.965Z,102175.38
2018-10-07T14:55:40.581Z,102165.17
2018-10-07T14:58:08.174Z,102171.73
2018-10-07T15:00:36.069Z,102172.70
2018-10-07T15:03:03.737Z,102181.05
2018-10-07T15:05:31.359Z,102178.33
2018-10-07T15:07:58.995Z,102178.80
2018-10-07T15:10:26.633Z,102183.30
2018-10-07T15:12:54.296Z,102182.53
2018-10-07T15:15:21.926Z,102185.21
2018-10-07T15:17:49.556Z,102184.34
2018-10-07T15:20:17.219Z,102187.04
2018-10-07T15:22:44.868Z,102182.56
2018-10-07T15:25:12.761Z,102179.89
2018-10-07T15:27:40.363Z,102178.28
2018-10-07T15:30:07.998Z,102172.80
2018-10-07T15:32:35.672Z,102187.02
2018-10-07T15:35:03.351Z,102191.06
2018-10-07T15:37:31.021Z,102200.28
2018-10-07T15:39:58.652Z,102200.77
2018-10-07T15:42:26.253Z,102201.16
2018-10-07T15:44:53.915Z,102206.33
2018-10-07T15:47:21.571Z,102208.16
2018-10-07T15:49:49.159Z,102212.62
2018-10-07T15:52:16.909Z,102209.66
2018-10-07T15:54:44.588Z,102202.27
2018-10-07T15:57:12.225Z,102215.44
2018-10-07T15:59:39.893Z,102209.75
2018-10-07T16:02:07.562Z,102209.76
2018-10-07T16:04:35.217Z,102211.59
2018-10-07T16:07:02.848Z,102220.87
2018-10-07T16:09:30.442Z,102217.42
2018-10-07T16:11:58.023Z,102220.06
2018-10-07T16:14:25.637Z,102217.86
2018-10-07T16:16:53.309Z,102213.94
2018-10-07T16:19:20.999Z,102213.58
2018-10-07T16:21:48.628Z,102214.08
2018-10-07T16:24:16.286Z,102211.95
2018-10-07T16:26:43.995Z,102210.70
2018-10-07T16:29:11.613Z,102216.84
2018-10-07T16:31:39.246Z,102214.27
2018-10-07T16:34:07.099Z,102212.54
2018-10-07T16:36:34.754Z,102206.02
2018-10-07T16:39:02.530Z,102206.92
2018-10-07T16:41:30.137Z,102222.70
2018-10-07T16:43:57.816Z,102220.97
2018-10-07T16:46:25.393Z,102226.70
2018-10-07T16:48:53.003Z,102232.84
2018-10-07T16:51:20.629Z,102247.34
2018-10-07T16:53:48.284Z,102250.86
2018-10-07T16:56:15.867Z,102253.06
2018-10-07T16:58:43.495Z,102267.52
2018-10-07T17:01:11.114Z,102264.47
2018-10-07T17:03:38.756Z,102273.23
2018-10-07T17:06:06.376Z,102282.88
2018-10-07T17:08:34.025Z,102288.56
2018-10-07T17:11:01.668Z,102289.45
2018-10-07T17:13:29.402Z,102292.11
2018-10-07T17:15:56.969Z,102285.11
2018-10-07T17:18:24.625Z,102286.85
2018-10-07T17:20:52.269Z,102292.56
2018-10-07T17:23:19.881Z,102290.36
2018-10-07T17:25:47.540Z,102290.36
2018-10-07T17:28:15.171Z,102290.36
2018-10-07T17:30:42.789Z,102292.13
2018-10-07T17:33:10.416Z,102292.13
2018-10-07T17:35:38.135Z,102292.55
2018-10-07T17:38:05.810Z,102301.30
2018-10-07T17:40:33.408Z,102295.19
2018-10-07T17:43:01.064Z,102297.39
2018-10-07T17:45:28.685Z,102303.95
2018-10-07T17:47:56.268Z,102302.62
2018-10-07T17:50:23.884Z,102303.09
2018-10-07T17:52:51.624Z,102300.45
2018-10-07T17:55:19.341Z,102300.02
2018-10-07T17:57:46.924Z,102300.02
2018-10-07T18:00:14.685Z,102303.52
2018-10-07T18:02:42.596Z,102298.70
2018-10-07T18:05:10.176Z,102295.22
2018-10-07T18:07:37.756Z,102291.28
2018-10-07T18:10:05.364Z,102285.61
2018-10-07T18:12:33.061Z,102286.45
2018-10-07T18:15:00.687Z,102286.45
2018-10-07T18:17:28.417Z,102290.41
2018-10-07T18:19:56.055Z,102288.66
2018-10-07T18:22:23.725Z,102282.98
2018-10-07T18:24:51.344Z,102279.05
2018-10-07T18:27:18.951Z,102284.72
2018-10-07T18:29:46.620Z,102296.52
2018-10-07T18:32:14.330Z,102306.16
2018-10-07T18:34:42.141Z,102309.66
2018-10-07T18:37:09.708Z,102316.63
2018-10-07T18:39:37.357Z,102324.50
2018-10-07T18:42:04.978Z,102330.20
2018-10-07T18:44:32.661Z,102329.31
2018-10-07T18:47:00.352Z,102338.06
2018-10-07T18:49:27.991Z,102333.23
2018-10-07T18:51:55.680Z,102336.75
2018-10-07T18:54:23.341Z,102329.31
2018-10-07T18:56:50.983Z,102336.30
2018-10-07T18:59:18.929Z,102338.48
2018-10-07T19:01:46.593Z,102333.23
2018-10-07T19:04:14.219Z,102337.16
2018-10-07T19:06:41.961Z,102333.67
2018-10-07T19:09:10.757Z,102328.00
2018-10-07T19:11:38.397Z,102332.36
2018-10-07T19:14:06.093Z,102331.04
2018-10-07T19:16:33.802Z,102339.78
2018-10-07T19:19:01.465Z,102336.73
2018-10-07T19:21:29.195Z,102337.14
2018-10-07T19:23:56.879Z,102333.20
2018-10-07T19:26:24.479Z,102333.67
2018-10-07T19:28:52.173Z,102334.97
2018-10-07T19:31:19.821Z,102332.80
2018-10-07T19:33:47.509Z,102335.84
2018-10-07T19:36:15.149Z,102340.62
2018-10-07T19:38:42.798Z,102329.68
2018-10-07T19:41:11.352Z,102332.73
2018-10-07T19:43:38.980Z,102343.66
2018-10-07T19:46:06.584Z,102347.58
2018-10-07T19:48:34.290Z,102338.84
2018-10-07T19:51:01.974Z,102345.84
2018-10-07T19:53:29.693Z,102340.15
2018-10-07T19:55:57.489Z,102332.28
2018-10-07T19:58:25.241Z,102330.97
2018-10-07T20:00:53.029Z,102337.52
2018-10-07T20:03:20.652Z,102337.52
2018-10-07T20:05:48.325Z,102338.83
2018-10-07T20:08:15.993Z,102338.37
2018-10-07T20:10:43.645Z,102340.56
2018-10-07T20:13:11.367Z,102340.15
2018-10-07T20:15:38.997Z,102341.87
2018-10-07T20:18:06.690Z,102344.92
2018-10-07T20:20:34.370Z,102333.14
2018-10-07T20:23:02.020Z,102339.70
2018-10-07T20:25:29.661Z,102336.63
2018-10-07T20:27:57.346Z,102330.51
2018-10-07T20:30:24.937Z,102322.64
2018-10-07T20:32:52.552Z,102328.30
2018-10-07T20:35:20.239Z,102318.70
2018-10-07T20:37:47.954Z,102308.23
2018-10-07T20:40:15.662Z,102312.14
2018-10-07T20:42:43.311Z,102309.98
2018-10-07T20:45:10.945Z,102306.91
2018-10-07T20:47:38.593Z,102318.70
2018-10-07T20:50:06.289Z,102320.89
2018-10-07T20:52:33.991Z,102318.24
2018-10-07T20:55:01.635Z,102313.03
2018-10-07T20:57:29.310Z,102320.00
2018-10-07T20:59:56.979Z,102323.50
2018-10-07T21:02:24.687Z,102324.34
2018-10-07T21:04:52.353Z,102321.73
2018-10-07T21:07:20.014Z,102308.61
2018-10-07T21:09:47.658Z,102301.61
2018-10-07T21:12:15.261Z,102303.38
2018-10-07T21:14:42.972Z,102296.39
2018-10-07T21:17:10.762Z,102302.94
2018-10-07T21:19:38.327Z,102291.57
2018-10-07T21:22:05.955Z,102293.77
2018-10-07T21:24:33.640Z,102291.14
2018-10-07T21:27:01.251Z,102287.20
2018-10-07T21:29:29.003Z,102293.32
2018-10-07T21:31:56.656Z,102285.03
2018-10-07T21:34:24.335Z,102283.70
2018-10-07T21:36:52.009Z,102280.22
2018-10-07T21:39:19.625Z,102283.27
2018-10-07T21:41:47.608Z,102281.09
2018-10-07T21:44:15.132Z,102273.23
2018-10-07T21:46:42.814Z,102276.73
2018-10-07T21:49:10.503Z,102275.84
2018-10-07T21:51:38.150Z,102280.63
2018-10-07T21:54:05.781Z,102275.42
2018-10-07T21:56:33.470Z,102275.40
2018-10-07T21:59:01.087Z,102281.95
2018-10-07T22:01:29.215Z,102280.63
2018-10-07T22:03:56.876Z,102278.45
2018-10-07T22:06:24.533Z,102282.38
2018-10-07T22:08:52.157Z,102285.00
2018-10-07T22:11:19.793Z,102285.84
2018-10-07T22:13:47.547Z,102280.17
2018-10-07T22:16:15.200Z,102277.55
2018-10-07T22:18:42.828Z,102284.10
2018-10-07T22:21:10.687Z,102278.86
2018-10-07T22:23:38.384Z,102287.58
2018-10-07T22:26:06.122Z,102290.63
2018-10-07T22:28:33.728Z,102288.03
2018-10-07T22:31:01.383Z,102281.91
2018-10-07T22:33:29.093Z,102277.53
2018-10-07T22:35:56.700Z,102284.97
2018-10-07T22:38:24.338Z,102285.81
2018-10-07T22:40:51.997Z,102282.33
2018-10-07T22:43:19.691Z,102294.14
2018-10-07T22:45:47.286Z,102291.93
2018-10-07T22:48:14.908Z,102297.17
2018-10-07T22:50:42.595Z,102292.80
2018-10-07T22:53:10.265Z,102292.36
2018-10-07T22:55:37.992Z,102288.41
2018-10-07T22:58:06.269Z,102282.74
2018-10-07T23:00:34.036Z,102284.05
2018-10-07T23:03:01.661Z,102279.67
2018-10-07T23:05:29.362Z,102280.98
2018-10-07T23:07:57.003Z,102283.61
2018-10-07T23:10:24.670Z,102279.67
2018-10-07T23:12:52.352Z,102282.29
2018-10-07T23:15:19.992Z,102289.69
2018-10-07T23:17:50.970Z,102287.95
2018-10-07T23:20:18.592Z,102285.76
2018-10-07T23:22:46.221Z,102278.79
2018-10-07T23:25:13.976Z,102286.63
2018-10-07T23:27:41.599Z,102286.63
2018-10-07T23:30:09.253Z,102290.56
2018-10-07T23:32:36.981Z,102292.28
2018-10-07T23:35:04.623Z,102297.97
2018-10-07T23:37:32.265Z,102292.27
2018-10-07T23:39:59.949Z,102293.58
2018-10-07T23:42:27.671Z,102285.72
2018-10-07T23:44:55.324Z,102287.48
2018-10-07T23:47:23.073Z,102294.89
2018-10-07T23:49:50.667Z,102291.83
2018-10-07T23:52:18.339Z,102287.87
2018-10-07T23:54:45.925Z,102290.95
2018-10-07T23:57:13.633Z,102291.81
2018-10-07T23:59:41.273Z,102297.92
